Time;durP1;ratioP1;P1;durP2;ratioP2;P2;SDS_P1;SDS_P2;PMS_P1;PMS_P2;Temp;Humidity;BMP_temperature;BMP_pressure;BME280_temperature;BME280_humidity;BME280_pressure;Samples;Min_cycle;Max_cycle;Signal;HPM_P1;HPM_P2
2021/09/25 00:00:59;;;;;;;2.95;2.40;;;;;;;;;;143736;592;45022;-87
2021/09/25 00:03:35;;;;;;;7.72;2.53;;;;;;;;;;143734;693;47019;-83
2021/09/25 00:06:21;;;;;;;5.20;2.40;;;;;;;;;;143739;571;45022;-88
2021/09/25 00:09:01;;;;;;;6.37;2.70;;;;;;;;;;143737;587;45020;-90
2021/09/25 00:11:53;;;;;;;4.60;2.45;;;;;;;;;;143737;570;45024;-88
2021/09/25 00:14:25;;;;;;;6.20;2.62;;;;;;;;;;143736;597;45018;-89
2021/09/25 00:16:57;;;;;;;3.25;2.03;;;;;;;;;;143736;614;46012;-88
2021/09/25 00:19:38;;;;;;;5.68;2.70;;;;;;;;;;143731;593;47018;-91
2021/09/25 00:22:17;;;;;;;7.75;2.05;;;;;;;;;;143734;565;46012;-88
2021/09/25 00:24:51;;;;;;;5.82;2.12;;;;;;;;;;143733;655;46019;-88
2021/09/25 00:27:29;;;;;;;6.28;2.53;;;;;;;;;;143736;592;46012;-89
2021/09/25 00:30:02;;;;;;;2.45;2.10;;;;;;;;;;143733;713;46020;-90
2021/09/25 00:32:30;;;;;;;4.35;1.98;;;;;;;;;;143733;566;46013;-89
2021/09/25 00:35:07;;;;;;;3.12;2.22;;;;;;;;;;143735;579;46018;-87
2021/09/25 00:37:50;;;;;;;4.45;2.17;;;;;;;;;;143735;577;46012;-87
2021/09/25 00:40:21;;;;;;;5.03;2.12;;;;;;;;;;143736;602;45022;-88
2021/09/25 00:43:02;;;;;;;4.25;2.22;;;;;;;;;;143733;579;46012;-89
2021/09/25 00:45:31;;;;;;;4.97;1.60;;;;;;;;;;143734;668;46014;-88
2021/09/25 00:48:12;;;;;;;6.95;2.00;;;;;;;;;;143734;581;46023;-88
2021/09/25 00:51:01;;;;;;;3.08;2.12;;;;;;;;;;143735;606;46014;-88
2021/09/25 00:53:35;;;;;;;8.32;2.22;;;;;;;;;;143732;571;46012;-88
2021/09/25 00:56:13;;;;;;;2.78;1.70;;;;;;;;;;143733;630;46019;-87
2021/09/25 00:58:46;;;;;;;6.32;1.65;;;;;;;;;;143735;569;46012;-88
2021/09/25 01:01:24;;;;;;;3.60;2.10;;;;;;;;;;143734;638;46014;-88
2021/09/25 01:04:14;;;;;;;2.90;2.15;;;;;;;;;;143732;681;46012;-87
2021/09/25 01:07:02;;;;;;;2.72;2.15;;;;;;;;;;143734;584;46018;-89
2021/09/25 01:09:51;;;;;;;4.18;2.55;;;;;;;;;;143735;564;46012;-88
2021/09/25 01:12:24;;;;;;;5.50;2.37;;;;;;;;;;143734;575;46031;-88
2021/09/25 01:14:53;;;;;;;5.57;2.03;;;;;;;;;;143731;635;46012;-87
2021/09/25 01:17:23;;;;;;;2.12;1.65;;;;;;;;;;143733;591;46019;-90
2021/09/25 01:19:52;;;;;;;8.73;2.30;;;;;;;;;;143734;600;46020;-90
2021/09/25 01:22:26;;;;;;;3.92;2.75;;;;;;;;;;143733;606;47018;-88
2021/09/25 01:25:00;;;;;;;6.28;2.35;;;;;;;;;;143732;571;46023;-89
2021/09/25 01:27:31;;;;;;;5.28;2.08;;;;;;;;;;143733;565;46018;-88
2021/09/25 01:30:09;;;;;;;6.07;2.33;;;;;;;;;;143736;570;46022;-88
2021/09/25 01:32:48;;;;;;;3.70;2.47;;;;;;;;;;143733;585;47021;-87
2021/09/25 01:35:22;;;;;;;5.75;2.10;;;;;;;;;;143732;569;46022;-88
2021/09/25 01:37:56;;;;;;;9.38;3.03;;;;;;;;;;143733;591;46018;-86
2021/09/25 01:40:23;;;;;;;2.70;2.37;;;;;;;;;;143735;579;46012;-87
2021/09/25 01:42:57;;;;;;;5.85;2.37;;;;;;;;;;143730;659;47020;-89
2021/09/25 01:45:38;;;;;;;2.60;1.87;;;;;;;;;;143734;571;46012;-90
2021/09/25 01:48:20;;;;;;;3.45;1.85;;;;;;;;;;143731;591;46019;-89
2021/09/25 01:50:55;;;;;;;7.27;2.57;;;;;;;;;;143734;648;46020;-88
2021/09/25 01:53:37;;;;;;;7.53;2.62;;;;;;;;;;143733;587;46020;-90
2021/09/25 01:56:29;;;;;;;3.40;2.35;;;;;;;;;;143732;587;46012;-88
2021/09/25 01:59:00;;;;;;;3.50;2.30;;;;;;;;;;143733;662;47018;-87
2021/09/25 02:01:39;;;;;;;3.40;2.22;;;;;;;;;;143735;587;46013;-84
2021/09/25 02:04:26;;;;;;;5.55;1.98;;;;;;;;;;143733;594;46021;-89
2021/09/25 02:07:07;;;;;;;2.50;2.08;;;;;;;;;;143732;585;47022;-88
2021/09/25 02:09:34;;;;;;;7.12;2.37;;;;;;;;;;143735;569;46019;-87
2021/09/25 02:12:09;;;;;;;3.70;2.40;;;;;;;;;;143733;565;46022;-87
2021/09/25 02:14:39;;;;;;;4.85;2.10;;;;;;;;;;143733;565;46020;-88
2021/09/25 02:17:28;;;;;;;2.67;2.25;;;;;;;;;;143731;573;46033;-88
2021/09/25 02:20:09;;;;;;;4.55;3.05;;;;;;;;;;143734;580;46018;-89
2021/09/25 02:22:49;;;;;;;;;;;;;;;;;;;;;
2021/09/25 02:25:21;;;;;;;5.03;2.60;;;;;;;;;;143732;561;47023;-88
2021/09/25 02:27:51;;;;;;;3.53;2.60;;;;;;;;;;143731;569;46012;-88
2021/09/25 02:30:34;;;;;;;5.95;3.25;;;;;;;;;;143733;598;46018;-88
2021/09/25 02:33:08;;;;;;;7.00;2.33;;;;;;;;;;143734;577;46020;-88
2021/09/25 02:35:42;;;;;;;4.45;2.40;;;;;;;;;;143734;564;46020;-89
2021/09/25 02:38:23;;;;;;;8.47;3.60;;;;;;;;;;143733;663;46023;-87
2021/09/25 02:40:59;;;;;;;4.35;3.00;;;;;;;;;;143731;564;47018;-88
2021/09/25 02:43:27;;;;;;;3.70;2.75;;;;;;;;;;143736;629;46020;-88
2021/09/25 02:45:59;;;;;;;6.65;2.90;;;;;;;;;;143732;615;47018;-88
2021/09/25 02:48:36;;;;;;;4.62;2.95;;;;;;;;;;143732;564;46012;-88
2021/09/25 02:51:04;;;;;;;6.70;3.80;;;;;;;;;;143733;591;46018;-88
2021/09/25 02:53:35;;;;;;;4.18;2.97;;;;;;;;;;143735;566;46013;-87
2021/09/25 02:56:11;;;;;;;7.78;2.97;;;;;;;;;;143732;606;47021;-87
2021/09/25 02:58:40;;;;;;;7.80;3.08;;;;;;;;;;143733;578;46049;-88
2021/09/25 03:01:24;;;;;;;8.55;3.33;;;;;;;;;;143735;639;46018;-88
2021/09/25 03:03:54;;;;;;;5.30;3.45;;;;;;;;;;143736;564;46020;-87
2021/09/25 03:06:23;;;;;;;8.05;3.35;;;;;;;;;;143730;601;48018;-87
2021/09/25 03:09:00;;;;;;;4.80;3.45;;;;;;;;;;143733;570;47023;-89
2021/09/25 03:11:41;;;;;;;7.53;3.42;;;;;;;;;;143735;653;46018;-89
2021/09/25 03:14:13;;;;;;;5.40;3.53;;;;;;;;;;143735;573;46012;-85
2021/09/25 03:16:51;;;;;;;5.75;3.15;;;;;;;;;;143735;567;46021;-87
2021/09/25 03:19:28;;;;;;;8.32;3.35;;;;;;;;;;143733;632;46012;-89
2021/09/25 03:21:57;;;;;;;6.82;3.80;;;;;;;;;;143735;585;46014;-89
2021/09/25 03:24:37;;;;;;;16.30;3.40;;;;;;;;;;143735;596;46013;-88
2021/09/25 03:27:24;;;;;;;5.12;3.50;;;;;;;;;;143731;634;47020;-87
2021/09/25 03:29:53;;;;;;;10.57;3.40;;;;;;;;;;143734;594;46012;-88
2021/09/25 03:32:35;;;;;;;15.48;4.20;;;;;;;;;;143731;575;47019;-90
2021/09/25 03:35:07;;;;;;;13.85;4.53;;;;;;;;;;143733;556;46012;-87
2021/09/25 03:37:38;;;;;;;9.90;4.37;;;;;;;;;;143732;636;47019;-86
2021/09/25 03:40:14;;;;;;;6.87;3.37;;;;;;;;;;143732;565;46012;-87
2021/09/25 03:42:50;;;;;;;6.03;4.03;;;;;;;;;;143734;619;47018;-86
2021/09/25 03:45:19;;;;;;;13.88;4.32;;;;;;;;;;143738;564;46023;-89
2021/09/25 03:47:51;;;;;;;7.47;4.18;;;;;;;;;;143733;698;47021;-88
2021/09/25 03:50:31;;;;;;;14.27;4.30;;;;;;;;;;143733;587;46022;-88
2021/09/25 03:53:13;;;;;;;6.80;4.18;;;;;;;;;;143735;606;46018;-88
2021/09/25 03:55:57;;;;;;;5.97;3.47;;;;;;;;;;143735;579;46012;-87
2021/09/25 03:58:24;;;;;;;10.63;4.55;;;;;;;;;;143733;596;46020;-88
2021/09/25 04:00:51;;;;;;;15.50;4.00;;;;;;;;;;143734;573;46013;-87
2021/09/25 04:03:18;;;;;;;8.77;3.65;;;;;;;;;;143735;585;46018;-88
2021/09/25 04:05:44;;;;;;;7.60;3.50;;;;;;;;;;143734;593;46020;-86
2021/09/25 04:08:11;;;;;;;7.97;3.50;;;;;;;;;;143731;570;47020;-89
2021/09/25 04:10:38;;;;;;;5.28;2.95;;;;;;;;;;143731;604;46919;-90
2021/09/25 04:13:04;;;;;;;6.53;2.72;;;;;;;;;;143735;626;46018;-87
2021/09/25 04:15:31;;;;;;;7.20;3.42;;;;;;;;;;143737;604;46013;-87
2021/09/25 04:17:58;;;;;;;10.00;3.65;;;;;;;;;;143732;570;47020;-88
2021/09/25 04:20:25;;;;;;;8.57;3.50;;;;;;;;;;143732;658;46012;-88
2021/09/25 04:22:52;;;;;;;21.95;3.30;;;;;;;;;;143734;581;47019;-89
2021/09/25 04:25:19;;;;;;;14.82;3.30;;;;;;;;;;143736;605;46012;-88
2021/09/25 04:27:49;;;;;;;13.50;3.37;;;;;;;;;;143732;569;47020;-89
2021/09/25 04:30:16;;;;;;;9.45;3.10;;;;;;;;;;143734;639;46013;-88
2021/09/25 04:32:43;;;;;;;4.53;3.17;;;;;;;;;;143736;640;46018;-88
2021/09/25 04:35:11;;;;;;;7.82;3.15;;;;;;;;;;143737;595;46012;-89
2021/09/25 04:37:41;;;;;;;12.93;6.32;;;;;;;;;;143734;616;46020;-89
2021/09/25 04:40:09;;;;;;;18.60;4.95;;;;;;;;;;143732;601;47012;-87
2021/09/25 04:42:38;;;;;;;20.00;3.95;;;;;;;;;;143738;597;45018;-90
2021/09/25 04:45:11;;;;;;;6.50;3.95;;;;;;;;;;143737;595;46012;-88
2021/09/25 04:47:46;;;;;;;14.90;4.10;;;;;;;;;;143734;589;47021;-88
2021/09/25 04:50:14;;;;;;;10.68;3.60;;;;;;;;;;143733;632;46012;-88
2021/09/25 04:52:42;;;;;;;9.48;3.03;;;;;;;;;;143735;576;46019;-88
2021/09/25 04:55:12;;;;;;;5.93;3.40;;;;;;;;;;143736;594;47020;-89
2021/09/25 04:57:42;;;;;;;10.70;4.37;;;;;;;;;;143735;593;46018;-88
2021/09/25 05:00:09;;;;;;;11.43;3.72;;;;;;;;;;143736;570;46012;-88
2021/09/25 05:02:38;;;;;;;8.40;3.87;;;;;;;;;;143734;598;47018;-89
2021/09/25 05:05:06;;;;;;;7.00;3.83;;;;;;;;;;143736;640;46020;-87
2021/09/25 05:07:35;;;;;;;10.10;4.18;;;;;;;;;;143734;586;47020;-87
2021/09/25 05:10:02;;;;;;;23.65;5.30;;;;;;;;;;143736;596;46012;-89
2021/09/25 05:12:29;;;;;;;11.95;4.32;;;;;;;;;;143733;591;46014;-89
2021/09/25 05:14:56;;;;;;;15.52;3.65;;;;;;;;;;143735;616;46012;-88
2021/09/25 05:17:22;;;;;;;18.70;4.32;;;;;;;;;;143734;600;46036;-88
2021/09/25 05:19:49;;;;;;;10.98;3.72;;;;;;;;;;143734;564;46012;-89
2021/09/25 05:22:19;;;;;;;11.23;3.75;;;;;;;;;;143735;617;46034;-87
2021/09/25 05:24:45;;;;;;;21.10;5.35;;;;;;;;;;143735;693;46022;-87
2021/09/25 05:27:14;;;;;;;12.07;3.95;;;;;;;;;;143735;569;46020;-85
2021/09/25 05:29:41;;;;;;;11.27;4.00;;;;;;;;;;143736;613;46022;-87
2021/09/25 05:32:08;;;;;;;11.63;4.37;;;;;;;;;;143737;566;46018;-87
2021/09/25 05:34:34;;;;;;;11.25;3.78;;;;;;;;;;143736;580;47022;-87
2021/09/25 05:37:02;;;;;;;13.20;3.67;;;;;;;;;;143734;595;47019;-87
2021/09/25 05:39:29;;;;;;;8.32;3.58;;;;;;;;;;143733;596;46022;-85
2021/09/25 05:41:56;;;;;;;12.52;3.45;;;;;;;;;;143737;594;46018;-87
2021/09/25 05:44:23;;;;;;;13.73;4.10;;;;;;;;;;143738;611;46012;-87
2021/09/25 05:46:57;;;;;;;9.68;3.78;;;;;;;;;;143734;631;47018;-88
2021/09/25 05:49:24;;;;;;;19.20;4.20;;;;;;;;;;143736;587;46022;-88
2021/09/25 05:51:51;;;;;;;7.80;4.35;;;;;;;;;;143735;586;46013;-88
2021/09/25 05:54:18;;;;;;;14.07;3.62;;;;;;;;;;143735;668;46014;-87
2021/09/25 05:56:44;;;;;;;16.87;5.00;;;;;;;;;;143733;579;47020;-86
2021/09/25 05:59:11;;;;;;;14.68;4.65;;;;;;;;;;143737;577;46014;-88
2021/09/25 06:01:38;;;;;;;9.48;4.10;;;;;;;;;;143734;601;46018;-85
2021/09/25 06:04:05;;;;;;;10.10;3.85;;;;;;;;;;143737;663;46012;-87
2021/09/25 06:06:32;;;;;;;14.05;4.57;;;;;;;;;;143735;566;46015;-86
2021/09/25 06:08:58;;;;;;;11.73;4.75;;;;;;;;;;143733;575;46012;-87
2021/09/25 06:11:25;;;;;;;11.93;5.12;;;;;;;;;;143733;572;47018;-86
2021/09/25 06:13:53;;;;;;;12.48;4.85;;;;;;;;;;143737;574;46023;-88
2021/09/25 06:16:19;;;;;;;7.03;4.20;;;;;;;;;;143733;566;46021;-85
2021/09/25 06:18:46;;;;;;;14.57;4.95;;;;;;;;;;143736;572;46014;-87
2021/09/25 06:21:13;;;;;;;9.93;5.43;;;;;;;;;;143736;564;46043;-87
2021/09/25 06:23:40;;;;;;;13.00;5.12;;;;;;;;;;143736;581;46050;-88
2021/09/25 06:26:08;;;;;;;15.73;5.10;;;;;;;;;;143733;660;47020;-87
2021/09/25 06:28:35;;;;;;;12.82;5.07;;;;;;;;;;143735;588;46012;-87
2021/09/25 06:31:02;;;;;;;10.98;4.97;;;;;;;;;;143736;584;46018;-87
2021/09/25 06:33:31;;;;;;;11.82;5.20;;;;;;;;;;143735;573;47012;-88
2021/09/25 06:35:58;;;;;;;10.93;5.57;;;;;;;;;;143735;620;46020;-86
2021/09/25 06:38:26;;;;;;;14.98;5.07;;;;;;;;;;143733;593;46023;-85
2021/09/25 06:40:58;;;;;;;9.82;4.80;;;;;;;;;;143737;583;46014;-86
2021/09/25 06:43:25;;;;;;;11.13;4.27;;;;;;;;;;143737;654;46012;-87
2021/09/25 06:45:52;;;;;;;14.77;4.47;;;;;;;;;;143732;571;47029;-88
2021/09/25 06:48:18;;;;;;;15.60;4.15;;;;;;;;;;143733;591;46022;-88
2021/09/25 06:50:45;;;;;;;16.08;3.65;;;;;;;;;;143735;602;47018;-87
2021/09/25 06:53:12;;;;;;;7.05;3.80;;;;;;;;;;143738;599;46012;-87
2021/09/25 06:55:39;;;;;;;8.05;4.53;;;;;;;;;;143734;589;46020;-86
2021/09/25 06:58:06;;;;;;;15.27;4.28;;;;;;;;;;143734;564;46919;-86
2021/09/25 07:00:34;;;;;;;19.90;4.87;;;;;;;;;;143736;595;46018;-87
2021/09/25 07:03:00;;;;;;;10.52;5.10;;;;;;;;;;143735;586;46022;-86
2021/09/25 07:05:27;;;;;;;10.23;5.22;;;;;;;;;;143735;631;46020;-87
2021/09/25 07:07:54;;;;;;;12.13;4.65;;;;;;;;;;143734;590;46023;-87
2021/09/25 07:10:20;;;;;;;16.30;5.72;;;;;;;;;;143734;637;47020;-87
2021/09/25 07:12:47;;;;;;;15.65;5.37;;;;;;;;;;143737;633;46015;-86
2021/09/25 07:15:15;;;;;;;17.67;5.35;;;;;;;;;;143734;688;47018;-86
2021/09/25 07:17:41;;;;;;;6.93;4.47;;;;;;;;;;143735;565;46012;-86
2021/09/25 07:20:09;;;;;;;12.90;5.07;;;;;;;;;;143735;587;47019;-86
2021/09/25 07:22:36;;;;;;;15.43;3.72;;;;;;;;;;143737;600;46012;-86
2021/09/25 07:25:03;;;;;;;19.52;4.45;;;;;;;;;;143733;662;47018;-87
2021/09/25 07:27:30;;;;;;;24.30;4.43;;;;;;;;;;143731;573;47022;-86
2021/09/25 07:29:56;;;;;;;18.05;5.37;;;;;;;;;;143734;569;47018;-87
2021/09/25 07:32:23;;;;;;;11.10;4.72;;;;;;;;;;143738;581;46012;-86
2021/09/25 07:34:50;;;;;;;19.67;5.68;;;;;;;;;;143735;569;46020;-88
2021/09/25 07:37:18;;;;;;;16.70;5.28;;;;;;;;;;143733;569;46012;-86
2021/09/25 07:39:44;;;;;;;17.60;4.65;;;;;;;;;;143735;564;46023;-87
2021/09/25 07:42:11;;;;;;;14.57;4.45;;;;;;;;;;143736;615;46021;-86
2021/09/25 07:44:38;;;;;;;9.75;4.40;;;;;;;;;;143735;631;46021;-85
2021/09/25 07:47:05;;;;;;;9.88;4.10;;;;;;;;;;143735;585;46022;-86
2021/09/25 07:49:31;;;;;;;13.88;5.12;;;;;;;;;;143736;586;46018;-86
2021/09/25 07:51:58;;;;;;;12.23;4.12;;;;;;;;;;143739;578;46022;-85
2021/09/25 07:54:25;;;;;;;13.65;4.50;;;;;;;;;;143736;587;46018;-87
2021/09/25 07:56:51;;;;;;;15.73;4.82;;;;;;;;;;143733;575;46012;-87
2021/09/25 07:59:18;;;;;;;14.02;4.93;;;;;;;;;;143737;582;46016;-86
2021/09/25 08:01:44;;;;;;;10.73;4.22;;;;;;;;;;143736;642;46021;-87
2021/09/25 08:04:11;;;;;;;14.10;4.12;;;;;;;;;;143734;675;46043;-86
2021/09/25 08:06:38;;;;;;;10.40;3.78;;;;;;;;;;143734;644;46012;-87
2021/09/25 08:09:05;;;;;;;9.02;4.28;;;;;;;;;;143735;565;47018;-88
2021/09/25 08:11:32;;;;;;;14.30;4.35;;;;;;;;;;143737;570;46013;-88
2021/09/25 08:13:59;;;;;;;14.35;4.87;;;;;;;;;;143733;633;46021;-87
2021/09/25 08:16:26;;;;;;;14.55;5.15;;;;;;;;;;143734;631;46012;-88
2021/09/25 08:18:53;;;;;;;10.60;3.97;;;;;;;;;;143736;585;46018;-86
2021/09/25 08:21:20;;;;;;;20.92;4.87;;;;;;;;;;143737;674;47020;-86
2021/09/25 08:23:47;;;;;;;11.40;3.67;;;;;;;;;;143736;597;46018;-87
2021/09/25 08:26:13;;;;;;;10.45;3.75;;;;;;;;;;143735;598;46012;-87
2021/09/25 08:28:41;;;;;;;11.55;4.20;;;;;;;;;;143736;665;46027;-87
2021/09/25 08:31:07;;;;;;;11.30;4.40;;;;;;;;;;143736;613;46012;-88
2021/09/25 08:33:35;;;;;;;4.10;3.15;;;;;;;;;;143734;565;47018;-89
2021/09/25 08:36:05;;;;;;;12.77;4.53;;;;;;;;;;143736;569;46012;-90
2021/09/25 08:38:36;;;;;;;11.55;5.22;;;;;;;;;;143736;577;46042;-83
2021/09/25 08:41:03;;;;;;;16.48;4.15;;;;;;;;;;143736;575;46020;-87
2021/09/25 08:43:30;;;;;;;9.07;3.33;;;;;;;;;;143734;593;46015;-87
2021/09/25 08:46:01;;;;;;;7.07;3.28;;;;;;;;;;143733;580;46012;-88
2021/09/25 08:48:31;;;;;;;12.30;4.03;;;;;;;;;;143734;587;47018;-89
2021/09/25 08:50:58;;;;;;;7.87;3.97;;;;;;;;;;143738;585;46012;-88
2021/09/25 08:53:25;;;;;;;7.95;3.95;;;;;;;;;;143735;587;46018;-88
2021/09/25 08:55:52;;;;;;;11.43;4.18;;;;;;;;;;143733;576;46012;-88
2021/09/25 08:58:19;;;;;;;12.10;4.10;;;;;;;;;;143736;595;46044;-87
2021/09/25 09:00:47;;;;;;;5.65;3.67;;;;;;;;;;143738;606;46012;-87
2021/09/25 09:03:51;;;;;;;4.68;3.08;;;;;;;;;;143734;565;47018;-89
2021/09/25 09:06:27;;;;;;;13.68;3.30;;;;;;;;;;143736;566;46013;-87
2021/09/25 09:08:54;;;;;;;9.63;3.50;;;;;;;;;;143736;591;46018;-88
2021/09/25 09:11:23;;;;;;;9.00;3.58;;;;;;;;;;143739;587;46012;-89
2021/09/25 09:13:54;;;;;;;7.32;4.32;;;;;;;;;;143732;604;47021;-88
2021/09/25 09:16:21;;;;;;;8.68;3.78;;;;;;;;;;143731;653;47012;-89
2021/09/25 09:18:50;;;;;;;13.48;4.32;;;;;;;;;;143735;633;46018;-88
2021/09/25 09:21:22;;;;;;;11.63;3.42;;;;;;;;;;143736;640;46012;-89
2021/09/25 09:24:07;;;;;;;8.10;4.37;;;;;;;;;;143732;590;46020;-88
2021/09/25 09:26:38;;;;;;;7.03;3.45;;;;;;;;;;143731;565;46012;-88
2021/09/25 09:29:08;;;;;;;9.77;3.50;;;;;;;;;;143733;574;46019;-87
2021/09/25 09:31:36;;;;;;;8.98;3.75;;;;;;;;;;143736;581;46012;-89
2021/09/25 09:34:07;;;;;;;8.20;3.10;;;;;;;;;;143734;576;46020;-86
2021/09/25 09:36:39;;;;;;;4.80;3.30;;;;;;;;;;143733;578;46012;-87
2021/09/25 09:39:23;;;;;;;4.93;3.15;;;;;;;;;;143733;597;47018;-88
2021/09/25 09:41:58;;;;;;;9.25;3.58;;;;;;;;;;143734;566;46014;-89
2021/09/25 09:44:28;;;;;;;19.35;3.60;;;;;;;;;;143732;594;47021;-88
2021/09/25 09:47:00;;;;;;;7.87;3.45;;;;;;;;;;143731;601;46012;-88
2021/09/25 09:49:30;;;;;;;5.30;3.67;;;;;;;;;;143733;571;46015;-89
2021/09/25 09:52:07;;;;;;;7.82;4.00;;;;;;;;;;143735;616;46020;-87
2021/09/25 09:54:36;;;;;;;10.60;3.60;;;;;;;;;;143734;573;46020;-88
2021/09/25 09:57:11;;;;;;;7.45;3.45;;;;;;;;;;143732;633;46013;-88
2021/09/25 09:59:39;;;;;;;9.00;3.72;;;;;;;;;;143733;625;46019;-88
2021/09/25 10:02:07;;;;;;;17.65;3.72;;;;;;;;;;143738;596;46020;-88
2021/09/25 10:04:35;;;;;;;5.82;3.53;;;;;;;;;;143734;586;46020;-89
2021/09/25 10:07:02;;;;;;;14.90;3.97;;;;;;;;;;143730;569;47022;-89
2021/09/25 10:09:33;;;;;;;4.57;3.08;;;;;;;;;;143733;584;46018;-89
2021/09/25 10:12:03;;;;;;;5.30;3.37;;;;;;;;;;143731;582;48012;-88
2021/09/25 10:14:32;;;;;;;8.40;3.28;;;;;;;;;;143735;564;46021;-89
2021/09/25 10:17:01;;;;;;;5.93;3.20;;;;;;;;;;143732;623;46022;-90
2021/09/25 10:19:31;;;;;;;6.10;4.28;;;;;;;;;;143735;571;46018;-88
2021/09/25 10:22:31;;;;;;;11.10;3.65;;;;;;;;;;143738;601;46012;-87
2021/09/25 10:25:00;;;;;;;6.28;3.25;;;;;;;;;;143733;620;47018;-89
2021/09/25 10:27:40;;;;;;;6.07;2.78;;;;;;;;;;143733;569;46012;-88
2021/09/25 10:30:10;;;;;;;5.30;3.20;;;;;;;;;;143733;640;47018;-89
2021/09/25 10:32:52;;;;;;;7.82;2.92;;;;;;;;;;143735;636;46020;-88
2021/09/25 10:35:25;;;;;;;7.32;2.80;;;;;;;;;;143731;565;47021;-88
2021/09/25 10:38:03;;;;;;;5.55;2.62;;;;;;;;;;143734;628;46012;-89
2021/09/25 10:40:33;;;;;;;9.70;2.85;;;;;;;;;;143734;575;46018;-89
2021/09/25 10:43:19;;;;;;;4.80;2.67;;;;;;;;;;143735;564;46053;-88
2021/09/25 10:45:49;;;;;;;7.05;2.30;;;;;;;;;;143732;581;47018;-89
2021/09/25 10:48:27;;;;;;;6.25;2.78;;;;;;;;;;143734;629;46023;-89
2021/09/25 10:51:08;;;;;;;10.10;2.58;;;;;;;;;;143734;588;46019;-89
2021/09/25 10:53:37;;;;;;;6.25;2.78;;;;;;;;;;143734;621;46012;-88
2021/09/25 10:56:07;;;;;;;4.12;2.62;;;;;;;;;;143734;566;46020;-88
2021/09/25 10:58:37;;;;;;;7.07;3.15;;;;;;;;;;143733;571;46023;-89
2021/09/25 11:01:15;;;;;;;6.37;2.12;;;;;;;;;;143733;630;46014;-88
2021/09/25 11:03:55;;;;;;;8.02;2.55;;;;;;;;;;143735;617;46013;-90
2021/09/25 11:06:27;;;;;;;7.07;3.22;;;;;;;;;;143731;588;47021;-88
2021/09/25 11:08:59;;;;;;;11.20;2.97;;;;;;;;;;143733;630;46014;-88
2021/09/25 11:11:56;;;;;;;4.45;2.50;;;;;;;;;;143734;574;46015;-88
2021/09/25 11:14:26;;;;;;;4.72;2.70;;;;;;;;;;143737;585;46012;-88
2021/09/25 11:17:16;;;;;;;5.40;2.25;;;;;;;;;;143734;592;46014;-87
2021/09/25 11:20:03;;;;;;;4.35;2.47;;;;;;;;;;143733;757;46012;-88
2021/09/25 11:22:33;;;;;;;5.45;3.03;;;;;;;;;;143733;598;46018;-87
2021/09/25 11:25:12;;;;;;;5.60;2.55;;;;;;;;;;143736;608;46022;-87
2021/09/25 11:27:45;;;;;;;5.62;2.67;;;;;;;;;;143733;570;46021;-88
2021/09/25 11:30:25;;;;;;;5.47;3.20;;;;;;;;;;143733;582;46012;-89
2021/09/25 11:33:00;;;;;;;3.78;2.53;;;;;;;;;;143734;580;46018;-87
2021/09/25 11:35:32;;;;;;;4.90;3.45;;;;;;;;;;143738;564;46013;-85
2021/09/25 11:38:03;;;;;;;4.87;2.50;;;;;;;;;;143732;613;48018;-88
2021/09/25 11:40:50;;;;;;;4.93;3.03;;;;;;;;;;143735;600;45916;-82
2021/09/25 11:43:25;;;;;;;3.47;2.50;;;;;;;;;;143738;625;45019;-83
2021/09/25 11:45:54;;;;;;;5.10;2.60;;;;;;;;;;143738;620;46012;-82
2021/09/25 11:48:24;;;;;;;4.40;2.47;;;;;;;;;;143734;608;46019;-86
2021/09/25 11:50:54;;;;;;;4.40;2.55;;;;;;;;;;143737;579;45917;-83
2021/09/25 11:53:24;;;;;;;4.82;2.20;;;;;;;;;;143737;573;46018;-83
2021/09/25 11:55:54;;;;;;;4.50;2.12;;;;;;;;;;143739;622;45023;-83
2021/09/25 11:58:23;;;;;;;4.82;2.60;;;;;;;;;;143735;598;46018;-81
2021/09/25 12:00:58;;;;;;;6.97;2.65;;;;;;;;;;143733;604;46022;-87
2021/09/25 12:03:28;;;;;;;6.85;2.35;;;;;;;;;;143734;580;46018;-88
2021/09/25 12:05:57;;;;;;;6.90;2.60;;;;;;;;;;143734;640;46012;-87
2021/09/25 12:08:26;;;;;;;8.60;2.42;;;;;;;;;;143733;590;47020;-88
2021/09/25 12:11:02;;;;;;;2.60;1.98;;;;;;;;;;143732;585;46013;-89
2021/09/25 12:13:34;;;;;;;5.03;2.47;;;;;;;;;;143736;642;46014;-89
2021/09/25 12:16:07;;;;;;;5.55;2.53;;;;;;;;;;143735;638;47022;-87
2021/09/25 12:18:39;;;;;;;4.65;2.67;;;;;;;;;;143732;621;47020;-92
2021/09/25 12:21:11;;;;;;;5.43;2.30;;;;;;;;;;143732;571;47022;-86
2021/09/25 12:24:07;;;;;;;7.12;2.58;;;;;;;;;;143738;587;46018;-87
2021/09/25 12:26:41;;;;;;;4.25;2.97;;;;;;;;;;143735;582;46013;-87
2021/09/25 12:29:22;;;;;;;3.35;2.50;;;;;;;;;;143732;637;46020;-90
2021/09/25 12:32:02;;;;;;;7.90;3.20;;;;;;;;;;143734;585;46049;-89
2021/09/25 12:34:55;;;;;;;3.72;2.42;;;;;;;;;;143734;578;46014;-88
2021/09/25 12:37:22;;;;;;;3.20;2.45;;;;;;;;;;143735;581;46012;-86
2021/09/25 12:39:57;;;;;;;5.32;2.80;;;;;;;;;;143735;617;46043;-88
2021/09/25 12:42:35;;;;;;;4.40;2.45;;;;;;;;;;143734;570;46022;-87
2021/09/25 12:45:02;;;;;;;5.62;2.90;;;;;;;;;;143735;636;47018;-87
2021/09/25 12:47:35;;;;;;;4.78;2.55;;;;;;;;;;143735;673;46012;-88
2021/09/25 12:50:21;;;;;;;5.22;2.30;;;;;;;;;;143731;584;47021;-87
2021/09/25 12:53:14;;;;;;;5.50;2.60;;;;;;;;;;143733;585;46012;-88
2021/09/25 12:55:41;;;;;;;;;;;;;;;;;;143740;972;46018;-88
2021/09/25 12:58:10;;;;;;;13.38;2.85;;;;;;;;;;143746;577;46023;-87
2021/09/25 13:00:37;;;;;;;3.12;2.58;;;;;;;;;;143735;564;46047;-88
2021/09/25 13:03:04;;;;;;;4.70;2.50;;;;;;;;;;143733;607;46010;-88
2021/09/25 13:05:33;;;;;;;8.52;3.55;;;;;;;;;;143734;595;46018;-86
2021/09/25 13:08:15;;;;;;;3.40;2.60;;;;;;;;;;143735;580;46044;-87
2021/09/25 13:10:58;;;;;;;4.32;2.78;;;;;;;;;;143734;605;46018;-89
2021/09/25 13:13:25;;;;;;;7.80;2.80;;;;;;;;;;143731;586;46010;-87
2021/09/25 13:15:52;;;;;;;5.70;2.90;;;;;;;;;;143733;586;46018;-90
2021/09/25 13:18:20;;;;;;;4.10;2.78;;;;;;;;;;143734;585;46021;-88
2021/09/25 13:20:47;;;;;;;8.57;2.55;;;;;;;;;;143732;577;46021;-90
2021/09/25 13:23:22;;;;;;;6.25;2.10;;;;;;;;;;143733;631;46012;-88
2021/09/25 13:25:51;;;;;;;3.15;2.55;;;;;;;;;;143735;589;46021;-89
2021/09/25 13:28:18;;;;;;;4.32;2.50;;;;;;;;;;143735;582;47020;-88
2021/09/25 13:30:45;;;;;;;11.88;3.05;;;;;;;;;;143735;600;46020;-89
2021/09/25 13:33:12;;;;;;;5.85;2.60;;;;;;;;;;143731;584;46011;-89
2021/09/25 13:35:39;;;;;;;4.43;2.80;;;;;;;;;;143732;578;47018;-89
2021/09/25 13:38:07;;;;;;;5.05;2.80;;;;;;;;;;143735;606;47022;-89
2021/09/25 13:40:34;;;;;;;6.90;2.42;;;;;;;;;;143731;645;47020;-89
2021/09/25 13:43:00;;;;;;;3.53;2.62;;;;;;;;;;143734;576;46010;-91
2021/09/25 13:45:27;;;;;;;8.30;2.33;;;;;;;;;;143735;594;46043;-86
2021/09/25 13:47:54;;;;;;;3.33;2.40;;;;;;;;;;143734;652;46013;-87
2021/09/25 13:50:21;;;;;;;7.32;2.60;;;;;;;;;;143730;627;47018;-90
2021/09/25 13:52:48;;;;;;;2.62;2.28;;;;;;;;;;143732;671;46010;-90
2021/09/25 13:55:15;;;;;;;11.35;3.12;;;;;;;;;;143734;576;46019;-87
2021/09/25 13:57:42;;;;;;;2.90;2.55;;;;;;;;;;143734;599;46023;-86
2021/09/25 14:00:10;;;;;;;3.67;2.90;;;;;;;;;;143731;564;47020;-90
2021/09/25 14:02:36;;;;;;;3.97;2.62;;;;;;;;;;143731;619;46010;-87
2021/09/25 14:05:03;;;;;;;4.22;3.45;;;;;;;;;;143732;587;46018;-88
2021/09/25 14:07:31;;;;;;;4.12;2.87;;;;;;;;;;143735;579;46010;-87
2021/09/25 14:09:58;;;;;;;6.30;2.97;;;;;;;;;;143731;639;46015;-86
2021/09/25 14:12:24;;;;;;;3.33;2.92;;;;;;;;;;143733;564;46023;-88
2021/09/25 14:14:51;;;;;;;9.27;3.42;;;;;;;;;;143734;602;46018;-89
2021/09/25 14:17:18;;;;;;;4.60;2.90;;;;;;;;;;143734;573;46021;-87
2021/09/25 14:19:47;;;;;;;3.33;2.95;;;;;;;;;;143731;625;47021;-87
2021/09/25 14:22:14;;;;;;;9.57;3.15;;;;;;;;;;143729;621;48916;-88
2021/09/25 14:24:41;;;;;;;6.03;2.75;;;;;;;;;;143732;564;47019;-87
2021/09/25 14:27:08;;;;;;;8.30;2.72;;;;;;;;;;143735;604;46010;-87
2021/09/25 14:29:35;;;;;;;6.28;4.28;;;;;;;;;;143732;605;47018;-86
2021/09/25 14:32:02;;;;;;;4.57;3.33;;;;;;;;;;143731;612;47023;-88
2021/09/25 14:34:30;;;;;;;5.00;3.05;;;;;;;;;;143735;613;46019;-88
2021/09/25 14:36:57;;;;;;;6.53;3.00;;;;;;;;;;143734;582;46020;-85
2021/09/25 14:39:24;;;;;;;10.10;3.85;;;;;;;;;;143731;593;47020;-88
2021/09/25 14:41:51;;;;;;;9.20;2.67;;;;;;;;;;143733;605;46010;-89
2021/09/25 14:44:18;;;;;;;5.15;2.90;;;;;;;;;;143732;564;47018;-86
2021/09/25 14:46:45;;;;;;;3.97;2.55;;;;;;;;;;143735;564;46022;-88
2021/09/25 14:49:13;;;;;;;3.53;2.65;;;;;;;;;;143731;589;47021;-87
2021/09/25 14:51:40;;;;;;;4.97;2.75;;;;;;;;;;143731;579;46010;-87
2021/09/25 14:54:06;;;;;;;9.57;2.83;;;;;;;;;;143733;566;47018;-87
2021/09/25 14:56:33;;;;;;;4.03;2.92;;;;;;;;;;143736;587;46010;-86
2021/09/25 14:59:00;;;;;;;5.30;3.03;;;;;;;;;;143731;605;47020;-87
2021/09/25 15:01:27;;;;;;;2.92;2.62;;;;;;;;;;143734;574;46013;-86
2021/09/25 15:03:54;;;;;;;5.60;2.62;;;;;;;;;;143733;593;47018;-88
2021/09/25 15:06:24;;;;;;;4.80;3.17;;;;;;;;;;143735;570;46010;-86